Time;durP1;ratioP1;P1;durP2;ratioP2;P2;SDS_P1;SDS_P2;PMS_P1;PMS_P2;Temp;Humidity;BMP_temperature;BMP_pressure;BME280_temperature;BME280_humidity;BME280_pressure;Samples;Min_cycle;Max_cycle;Signal;HPM_P1;HPM_P2
2021/03/01 00:00:17;;;;;;;21.50;11.35;;;9.50;99.90;;;;;;5044401;28;20187;-61
2021/03/01 00:02:45;;;;;;;20.83;10.32;;;9.30;99.90;;;;;;5044229;28;20482;-62
2021/03/01 00:05:13;;;;;;;15.60;9.10;;;9.10;99.90;;;;;;5044687;28;20021;-62
2021/03/01 00:07:42;;;;;;;14.13;7.82;;;8.90;99.90;;;;;;5044927;28;20028;-62
2021/03/01 00:10:11;;;;;;;13.88;8.68;;;8.90;99.90;;;;;;5045134;28;20060;-61
2021/03/01 00:12:39;;;;;;;14.73;8.60;;;9.00;99.90;;;;;;5045136;28;20037;-62
2021/03/01 00:15:10;;;;;;;15.07;9.32;;;9.00;99.90;;;;;;5044628;28;20029;-62
2021/03/01 00:17:39;;;;;;;18.15;10.45;;;9.00;99.90;;;;;;5045244;28;20116;-62
2021/03/01 00:20:10;;;;;;;13.32;9.07;;;8.90;99.90;;;;;;5050593;28;20376;-62
2021/03/01 00:22:36;;;;;;;16.38;9.82;;;8.90;99.90;;;;;;5051194;28;20025;-61
2021/03/01 00:25:06;;;;;;;17.45;10.55;;;8.90;99.90;;;;;;5050833;28;20409;-62
2021/03/01 00:27:34;;;;;;;16.90;10.27;;;8.90;99.90;;;;;;5050963;28;20123;-61
2021/03/01 00:30:02;;;;;;;19.30;11.93;;;8.70;99.90;;;;;;5050862;28;20026;-61
2021/03/01 00:32:30;;;;;;;19.08;10.52;;;8.70;99.90;;;;;;5050907;28;20029;-61
2021/03/01 00:34:57;;;;;;;17.30;10.15;;;8.70;99.90;;;;;;5050590;28;20404;-62
2021/03/01 00:37:23;;;;;;;17.52;10.05;;;8.60;99.90;;;;;;5050857;28;20115;-62
2021/03/01 00:39:51;;;;;;;16.00;9.80;;;8.70;99.90;;;;;;5051091;28;20029;-62
2021/03/01 00:42:17;;;;;;;16.92;9.70;;;8.60;99.90;;;;;;5050645;28;20029;-62
2021/03/01 00:44:45;;;;;;;15.07;9.55;;;8.50;99.90;;;;;;5051019;28;20201;-62
2021/03/01 00:47:11;;;;;;;16.58;9.55;;;8.50;99.90;;;;;;5051623;28;20505;-62
2021/03/01 00:49:40;;;;;;;15.43;8.13;;;8.60;99.90;;;;;;5051433;28;20024;-62
2021/03/01 00:52:09;;;;;;;13.93;8.50;;;8.70;99.90;;;;;;5050843;28;20083;-62
2021/03/01 00:54:34;;;;;;;12.98;8.65;;;8.80;99.90;;;;;;5051035;28;20021;-62
2021/03/01 00:57:02;;;;;;;12.55;8.45;;;8.80;99.90;;;;;;5050765;28;20027;-62
2021/03/01 00:59:29;;;;;;;11.82;7.47;;;8.90;99.90;;;;;;5050593;28;20493;-62
2021/03/01 01:01:57;;;;;;;12.50;7.82;;;8.90;99.90;;;;;;5050272;28;20027;-62
2021/03/01 01:04:24;;;;;;;11.65;7.28;;;8.90;99.90;;;;;;5050315;28;20472;-62
2021/03/01 01:06:49;;;;;;;12.27;8.30;;;8.90;99.90;;;;;;5051021;28;20139;-62
2021/03/01 01:09:17;;;;;;;13.07;7.57;;;8.80;99.90;;;;;;5050416;28;20108;-61
2021/03/01 01:11:45;;;;;;;11.73;7.50;;;8.80;99.90;;;;;;5050612;28;20044;-61
2021/03/01 01:14:13;;;;;;;10.95;7.13;;;8.80;99.90;;;;;;5051230;28;20013;-61
2021/03/01 01:16:41;;;;;;;12.07;7.35;;;8.80;99.90;;;;;;5051367;28;20120;-61
2021/03/01 01:19:08;;;;;;;12.70;7.55;;;8.90;99.90;;;;;;5050913;28;20021;-61
2021/03/01 01:21:36;;;;;;;12.77;8.10;;;9.00;99.90;;;;;;5050472;28;20472;-61
2021/03/01 01:24:02;;;;;;;12.43;7.88;;;8.90;99.90;;;;;;5050656;28;20515;-61
2021/03/01 01:26:33;;;;;;;14.98;7.95;;;8.80;99.90;;;;;;5050771;28;20032;-61
2021/03/01 01:29:00;;;;;;;14.40;8.68;;;8.80;99.90;;;;;;5048990;28;20494;-61
2021/03/01 01:31:26;;;;;;;13.20;7.82;;;8.60;99.90;;;;;;5046891;28;20419;-61
2021/03/01 01:33:54;;;;;;;14.50;8.27;;;8.60;99.90;;;;;;5047258;28;20608;-61
2021/03/01 01:36:21;;;;;;;14.38;7.85;;;8.60;99.90;;;;;;5047038;28;20478;-61
2021/03/01 01:38:48;;;;;;;13.27;8.13;;;8.70;99.90;;;;;;5047391;28;20049;-61
2021/03/01 01:41:14;;;;;;;13.27;7.93;;;8.80;99.90;;;;;;5046712;28;20502;-61
2021/03/01 01:43:42;;;;;;;11.35;7.70;;;8.90;99.90;;;;;;5047799;28;20025;-61
2021/03/01 01:46:08;;;;;;;11.32;7.28;;;8.80;99.90;;;;;;5047712;28;20534;-61
2021/03/01 01:48:37;;;;;;;12.65;7.25;;;8.80;99.90;;;;;;5046705;28;20039;-62
2021/03/01 01:51:05;;;;;;;16.02;7.90;;;8.90;99.90;;;;;;5046852;28;20033;-61
2021/03/01 01:53:33;;;;;;;13.30;8.15;;;8.80;99.90;;;;;;5047149;28;20033;-61
2021/03/01 01:56:02;;;;;;;14.98;8.27;;;8.60;99.90;;;;;;5046981;28;20032;-61
2021/03/01 01:58:28;;;;;;;12.10;7.70;;;8.70;99.90;;;;;;5046534;28;20422;-61
2021/03/01 02:00:56;;;;;;;11.60;8.07;;;8.50;99.90;;;;;;5046651;28;20491;-61
2021/03/01 02:03:46;;;;;;;15.00;8.20;;;8.60;99.90;;;;;;5044385;28;20450;-61
2021/03/01 02:06:39;;;;;;;11.98;7.15;;;8.40;99.90;;;;;;5046874;28;20449;-61
2021/03/01 02:09:16;;;;;;;11.65;7.53;;;8.40;99.90;;;;;;5046764;28;20034;-61
2021/03/01 02:12:04;;;;;;;11.85;7.72;;;8.20;99.90;;;;;;5046450;28;20041;-61
2021/03/01 02:14:35;;;;;;;13.77;7.63;;;8.40;99.90;;;;;;5046357;28;20029;-61
2021/03/01 02:17:02;;;;;;;13.35;7.82;;;8.60;99.90;;;;;;5046161;28;20025;-61
2021/03/01 02:19:31;;;;;;;13.35;7.70;;;8.70;99.90;;;;;;5046371;28;20328;-61
2021/03/01 02:22:00;;;;;;;11.13;7.28;;;8.60;99.90;;;;;;5046531;28;20041;-61
2021/03/01 02:24:42;;;;;;;10.65;6.93;;;8.40;99.90;;;;;;5046274;28;20487;-61
2021/03/01 02:27:10;;;;;;;10.50;6.95;;;8.50;99.90;;;;;;5046892;28;20029;-61
2021/03/01 02:29:37;;;;;;;12.73;7.75;;;8.50;99.90;;;;;;5046336;28;20021;-61
2021/03/01 02:32:06;;;;;;;14.38;8.02;;;8.60;99.90;;;;;;5046099;28;20436;-61
2021/03/01 02:34:38;;;;;;;13.90;8.68;;;8.60;99.90;;;;;;5045997;28;20388;-61
2021/03/01 02:37:13;;;;;;;15.32;8.23;;;8.40;99.90;;;;;;5046241;28;20029;-61
2021/03/01 02:39:46;;;;;;;13.55;7.93;;;8.30;99.90;;;;;;5046634;28;20025;-61
2021/03/01 02:42:19;;;;;;;13.80;8.18;;;8.20;99.90;;;;;;5044039;28;20021;-61
2021/03/01 02:44:49;;;;;;;11.68;7.18;;;8.10;99.90;;;;;;5046238;28;20025;-61
2021/03/01 02:47:17;;;;;;;11.18;6.75;;;8.10;99.90;;;;;;5044637;28;20029;-61
2021/03/01 02:49:44;;;;;;;11.32;7.90;;;7.90;99.90;;;;;;5045685;28;20025;-61
2021/03/01 02:52:13;;;;;;;12.45;6.85;;;7.80;99.90;;;;;;5045903;28;20044;-61
2021/03/01 02:54:42;;;;;;;11.30;7.18;;;8.10;99.90;;;;;;5046348;28;20523;-61
2021/03/01 02:57:12;;;;;;;10.95;6.70;;;8.20;99.90;;;;;;5045641;28;20116;-61
2021/03/01 02:59:40;;;;;;;13.55;8.07;;;8.30;99.90;;;;;;5045574;28;20495;-61
2021/03/01 03:02:09;;;;;;;12.88;8.05;;;8.40;99.90;;;;;;5045191;28;20044;-61
2021/03/01 03:04:37;;;;;;;13.32;8.55;;;8.20;99.90;;;;;;5045598;28;20025;-61
2021/03/01 03:07:04;;;;;;;15.45;7.80;;;8.30;99.90;;;;;;5045160;28;20541;-61
2021/03/01 03:09:30;;;;;;;14.95;8.38;;;8.30;99.90;;;;;;5043957;28;20418;-61
2021/03/01 03:12:03;;;;;;;15.38;8.70;;;8.20;99.90;;;;;;5045496;28;20478;-61
2021/03/01 03:14:32;;;;;;;18.88;10.88;;;8.00;99.90;;;;;;5045139;28;20533;-61
2021/03/01 03:17:03;;;;;;;26.85;12.52;;;8.20;99.90;;;;;;5044650;28;20517;-61
2021/03/01 03:19:31;;;;;;;26.50;14.30;;;8.20;99.90;;;;;;5044239;28;20025;-61
2021/03/01 03:21:56;;;;;;;35.35;17.17;;;8.10;99.90;;;;;;5045133;28;20032;-61
2021/03/01 03:24:24;;;;;;;29.42;15.18;;;8.20;99.90;;;;;;5045404;28;20558;-61
2021/03/01 03:26:50;;;;;;;25.42;13.82;;;8.20;99.90;;;;;;5045120;28;20446;-61
2021/03/01 03:29:17;;;;;;;19.88;12.20;;;8.00;99.90;;;;;;5044864;28;20108;-61
2021/03/01 03:31:46;;;;;;;22.35;12.43;;;8.20;99.90;;;;;;5044785;28;20488;-61
2021/03/01 03:34:15;;;;;;;18.30;11.25;;;8.30;99.90;;;;;;5044941;28;20033;-61
2021/03/01 03:36:45;;;;;;;18.90;11.05;;;8.30;99.90;;;;;;5045400;28;20485;-61
2021/03/01 03:39:16;;;;;;;20.05;10.13;;;8.40;99.90;;;;;;5045024;28;20398;-61
2021/03/01 03:41:47;;;;;;;14.63;9.57;;;8.50;99.90;;;;;;5044931;28;20100;-61
2021/03/01 03:44:18;;;;;;;15.15;8.82;;;8.60;99.90;;;;;;5045057;28;20528;-61
2021/03/01 03:46:46;;;;;;;15.55;9.70;;;8.70;99.90;;;;;;5044667;28;20056;-61
2021/03/01 03:49:17;;;;;;;12.70;8.30;;;8.60;99.90;;;;;;5044622;28;20566;-61
2021/03/01 03:51:47;;;;;;;12.20;8.10;;;8.50;99.90;;;;;;5044768;28;20033;-61
2021/03/01 03:54:22;;;;;;;13.88;7.68;;;8.40;99.90;;;;;;5044205;28;20302;-62
2021/03/01 03:56:56;;;;;;;12.73;7.43;;;8.20;99.90;;;;;;5044536;28;20229;-61
2021/03/01 03:59:31;;;;;;;15.30;7.95;;;8.20;99.90;;;;;;5043326;28;20404;-61
2021/03/01 04:01:59;;;;;;;13.70;8.13;;;8.20;99.90;;;;;;5043825;28;20663;-61
2021/03/01 04:04:28;;;;;;;13.68;7.93;;;8.20;99.90;;;;;;5044504;28;20403;-61
2021/03/01 04:06:59;;;;;;;11.15;7.97;;;8.20;99.90;;;;;;5044613;28;20033;-61
2021/03/01 04:09:28;;;;;;;13.55;7.75;;;8.10;99.90;;;;;;5044468;28;20029;-61
2021/03/01 04:11:58;;;;;;;15.02;8.35;;;8.10;99.90;;;;;;5044420;28;20029;-61
2021/03/01 04:14:28;;;;;;;13.57;8.02;;;8.20;99.90;;;;;;5043090;28;20037;-61
2021/03/01 04:16:59;;;;;;;14.15;7.88;;;8.00;99.90;;;;;;5044250;28;20436;-61
2021/03/01 04:19:29;;;;;;;12.45;7.88;;;8.00;99.90;;;;;;5044661;28;20025;-61
2021/03/01 04:22:00;;;;;;;14.57;8.40;;;8.10;99.90;;;;;;5044202;28;20434;-61
2021/03/01 04:24:28;;;;;;;14.27;7.68;;;8.10;99.90;;;;;;5044033;28;20025;-61
2021/03/01 04:26:55;;;;;;;13.65;8.63;;;8.00;99.90;;;;;;5044271;28;20040;-61
2021/03/01 04:29:24;;;;;;;15.35;8.45;;;7.90;99.90;;;;;;5044163;28;20030;-61
2021/03/01 04:31:55;;;;;;;12.82;8.05;;;8.00;99.90;;;;;;5044103;28;20021;-61
2021/03/01 04:34:24;;;;;;;12.25;6.82;;;8.00;99.90;;;;;;5044081;28;20314;-61
2021/03/01 04:36:51;;;;;;;11.75;7.45;;;8.00;99.90;;;;;;5044608;28;20029;-61
2021/03/01 04:39:21;;;;;;;14.80;8.90;;;8.10;99.90;;;;;;5040447;28;20025;-61
2021/03/01 04:41:49;;;;;;;14.70;7.88;;;8.00;99.90;;;;;;5043372;28;20025;-63
2021/03/01 04:44:16;;;;;;;13.68;8.40;;;8.00;99.90;;;;;;5041945;28;20033;-61
2021/03/01 04:46:50;;;;;;;13.10;8.02;;;7.80;99.90;;;;;;5043984;28;20032;-61
2021/03/01 04:49:16;;;;;;;;;;;7.80;99.90;;;;;;5043795;28;20037;-61
2021/03/01 04:51:44;;;;;;;12.23;8.35;;;7.90;99.90;;;;;;5042487;28;19927;-61
2021/03/01 04:54:12;;;;;;;15.38;9.32;;;8.10;99.90;;;;;;5039296;28;20437;-61
2021/03/01 04:56:48;;;;;;;16.17;8.25;;;8.10;99.90;;;;;;5042688;28;20052;-61
2021/03/01 04:59:17;;;;;;;15.10;8.77;;;8.20;99.90;;;;;;5043258;28;20025;-61
2021/03/01 05:01:44;;;;;;;16.38;9.60;;;8.20;99.90;;;;;;5043939;28;20093;-62
2021/03/01 05:04:11;;;;;;;14.30;9.07;;;8.00;99.90;;;;;;5043547;28;20153;-61
2021/03/01 05:06:38;;;;;;;13.60;8.15;;;7.90;99.90;;;;;;5048457;28;20360;-61
2021/03/01 05:09:05;;;;;;;15.05;8.55;;;8.00;99.90;;;;;;5047569;28;20046;-60
2021/03/01 05:11:36;;;;;;;12.75;7.82;;;8.00;99.90;;;;;;5047056;28;20037;-61
2021/03/01 05:14:05;;;;;;;13.82;8.27;;;8.10;99.90;;;;;;5048695;28;20049;-60
2021/03/01 05:16:34;;;;;;;17.40;9.18;;;8.00;99.90;;;;;;5048668;28;20024;-60
2021/03/01 05:19:00;;;;;;;13.95;8.43;;;7.80;99.90;;;;;;5049050;28;20530;-60
2021/03/01 05:21:27;;;;;;;14.63;7.93;;;8.00;99.90;;;;;;5048715;28;20029;-60
2021/03/01 05:23:55;;;;;;;11.43;7.25;;;7.90;99.90;;;;;;5049348;28;20737;-63
2021/03/01 05:26:21;;;;;;;11.93;7.88;;;7.90;99.90;;;;;;5048844;28;20724;-60
2021/03/01 05:28:49;;;;;;;13.13;7.95;;;8.00;99.90;;;;;;5048865;28;20033;-60
2021/03/01 05:31:17;;;;;;;10.73;7.25;;;8.00;99.90;;;;;;5048234;28;20570;-60
2021/03/01 05:33:45;;;;;;;13.55;8.18;;;8.00;99.90;;;;;;5048800;28;20025;-60
2021/03/01 05:36:13;;;;;;;15.65;7.80;;;7.80;99.90;;;;;;5048202;28;20025;-60
2021/03/01 05:38:39;;;;;;;15.55;7.93;;;7.80;99.90;;;;;;5048777;28;20021;-60
2021/03/01 05:41:06;;;;;;;12.80;8.45;;;7.80;99.90;;;;;;5048678;28;20095;-60
2021/03/01 05:43:35;;;;;;;14.93;8.25;;;7.90;99.90;;;;;;5048559;28;20025;-60
2021/03/01 05:46:01;;;;;;;12.73;7.68;;;7.90;99.90;;;;;;5048665;28;20029;-60
2021/03/01 05:48:30;;;;;;;13.38;7.93;;;7.60;99.90;;;;;;5047512;28;20119;-61
2021/03/01 05:50:58;;;;;;;11.35;7.90;;;7.60;99.90;;;;;;5046915;28;20032;-61
2021/03/01 05:53:33;;;;;;;13.27;8.68;;;7.70;99.90;;;;;;5046166;28;20037;-60
2021/03/01 05:56:01;;;;;;;13.73;8.93;;;7.60;99.90;;;;;;5046735;28;20044;-61
2021/03/01 05:58:30;;;;;;;16.35;9.23;;;7.70;99.90;;;;;;5046492;28;20339;-61
2021/03/01 06:01:06;;;;;;;14.32;7.82;;;7.60;99.90;;;;;;5046693;28;20029;-61
2021/03/01 06:03:33;;;;;;;16.40;8.50;;;7.60;99.90;;;;;;5046086;28;20074;-60
2021/03/01 06:06:02;;;;;;;13.05;8.52;;;7.70;99.90;;;;;;5046614;28;20128;-61
2021/03/01 06:08:30;;;;;;;19.25;9.88;;;7.50;99.90;;;;;;5046356;28;20024;-60
2021/03/01 06:11:00;;;;;;;12.77;8.65;;;7.60;99.90;;;;;;5045913;28;20036;-60
2021/03/01 06:13:28;;;;;;;16.02;9.25;;;7.30;99.90;;;;;;5046502;28;20099;-61
2021/03/01 06:15:56;;;;;;;21.67;10.95;;;7.40;99.90;;;;;;5046153;28;20123;-60
2021/03/01 06:18:23;;;;;;;23.40;11.25;;;7.40;99.90;;;;;;5046726;28;20025;-60
2021/03/01 06:20:52;;;;;;;17.65;10.15;;;7.40;99.90;;;;;;5046763;28;20150;-60
2021/03/01 06:23:37;;;;;;;16.08;8.68;;;7.20;99.90;;;;;;5046149;28;20507;-60
2021/03/01 06:26:34;;;;;;;14.10;9.32;;;7.10;99.90;;;;;;5046581;28;20029;-61
2021/03/01 06:29:04;;;;;;;12.05;7.75;;;7.00;99.90;;;;;;5046041;28;20039;-61
2021/03/01 06:31:38;;;;;;;12.60;8.27;;;7.10;99.90;;;;;;5045784;28;20037;-60
2021/03/01 06:34:28;;;;;;;12.65;7.95;;;7.00;99.90;;;;;;5046080;28;20032;-60
2021/03/01 06:36:56;;;;;;;11.38;7.78;;;7.00;99.90;;;;;;5044958;28;20029;-60
2021/03/01 06:39:41;;;;;;;13.32;7.68;;;7.20;99.90;;;;;;5045747;28;20021;-60
2021/03/01 06:42:18;;;;;;;12.38;7.70;;;7.30;99.90;;;;;;5046366;28;20108;-60
2021/03/01 06:44:49;;;;;;;13.23;8.63;;;7.20;99.90;;;;;;5045708;28;20031;-63
2021/03/01 06:47:18;;;;;;;11.32;7.53;;;7.30;99.90;;;;;;5043426;28;20025;-61
2021/03/01 06:49:46;;;;;;;13.15;8.88;;;7.10;99.90;;;;;;5046194;28;20057;-61
2021/03/01 06:52:40;;;;;;;11.98;7.50;;;7.00;99.90;;;;;;5044830;28;20090;-61
2021/03/01 06:55:10;;;;;;;13.85;8.38;;;7.30;99.90;;;;;;5045776;28;20032;-61
2021/03/01 06:57:38;;;;;;;15.88;8.70;;;7.30;99.90;;;;;;5045461;28;20510;-61
2021/03/01 07:00:06;;;;;;;11.57;7.47;;;7.30;99.90;;;;;;5045881;28;20418;-61
2021/03/01 07:02:43;;;;;;;13.95;7.95;;;7.20;99.90;;;;;;5045341;28;20025;-61
2021/03/01 07:05:10;;;;;;;13.43;7.60;;;7.20;99.90;;;;;;5045493;28;20068;-61
2021/03/01 07:07:39;;;;;;;14.38;7.95;;;7.20;99.90;;;;;;5046218;28;20412;-61
2021/03/01 07:10:07;;;;;;;12.82;7.50;;;7.30;99.90;;;;;;5046279;28;20032;-61
2021/03/01 07:12:44;;;;;;;14.52;7.93;;;7.20;99.90;;;;;;5045729;28;20025;-61
2021/03/01 07:15:11;;;;;;;12.57;8.23;;;7.20;99.90;;;;;;5044874;28;20498;-60
2021/03/01 07:17:40;;;;;;;13.02;8.30;;;7.20;99.90;;;;;;5044800;28;20036;-61
2021/03/01 07:20:11;;;;;;;14.13;7.82;;;7.30;99.90;;;;;;5044398;28;20029;-60
2021/03/01 07:22:41;;;;;;;14.38;8.82;;;7.40;99.90;;;;;;5045135;28;20029;-61
2021/03/01 07:25:09;;;;;;;15.07;9.32;;;7.60;99.90;;;;;;5046760;28;20047;-61
2021/03/01 07:27:41;;;;;;;12.00;8.43;;;7.70;99.90;;;;;;5043610;28;20032;-60
2021/03/01 07:30:08;;;;;;;14.02;8.30;;;7.80;99.90;;;;;;5035394;28;20056;-60
2021/03/01 07:32:36;;;;;;;13.20;7.68;;;7.80;99.90;;;;;;5046750;28;20029;-61
2021/03/01 07:35:03;;;;;;;14.18;8.45;;;7.90;99.90;;;;;;5047222;28;20037;-61
2021/03/01 07:37:29;;;;;;;15.18;9.45;;;8.00;99.90;;;;;;5045391;28;20021;-61
2021/03/01 07:39:55;;;;;;;13.60;7.68;;;7.80;99.90;;;;;;5045604;28;20044;-61
2021/03/01 07:42:22;;;;;;;11.70;7.53;;;7.70;99.90;;;;;;5046341;28;20037;-61
2021/03/01 07:44:52;;;;;;;13.30;8.30;;;7.70;99.90;;;;;;5044141;28;20029;-61
2021/03/01 07:47:25;;;;;;;13.02;7.93;;;7.60;99.90;;;;;;5042964;28;20423;-61
2021/03/01 07:49:50;;;;;;;14.05;8.05;;;8.00;99.90;;;;;;5043614;28;20486;-61
2021/03/01 07:52:19;;;;;;;10.68;6.82;;;8.10;99.90;;;;;;5044002;28;20029;-60
2021/03/01 07:54:52;;;;;;;12.52;6.78;;;8.20;99.90;;;;;;5046682;28;20075;-60
2021/03/01 07:57:19;;;;;;;13.45;8.10;;;8.10;99.90;;;;;;5045380;28;20020;-60
2021/03/01 07:59:45;;;;;;;13.73;6.63;;;8.20;99.90;;;;;;5045113;28;20167;-60
2021/03/01 08:02:33;;;;;;;9.70;5.78;;;8.40;99.90;;;;;;5044534;28;20066;-60
2021/03/01 08:05:19;;;;;;;10.85;6.40;;;8.60;99.90;;;;;;5045064;28;20082;-61
2021/03/01 08:07:45;;;;;;;7.82;5.05;;;8.60;99.90;;;;;;5044980;28;20120;-60
2021/03/01 08:10:12;;;;;;;7.50;5.00;;;8.80;99.90;;;;;;5044531;28;20179;-60
2021/03/01 08:12:39;;;;;;;9.40;5.53;;;8.80;99.90;;;;;;5044793;28;20041;-61
2021/03/01 08:15:12;;;;;;;8.18;6.05;;;8.60;99.90;;;;;;5045307;28;20029;-60
2021/03/01 08:17:40;;;;;;;8.93;5.82;;;8.70;99.90;;;;;;5044717;28;20044;-60
2021/03/01 08:20:12;;;;;;;9.25;5.53;;;8.80;99.90;;;;;;5045192;28;20414;-60
2021/03/01 08:23:06;;;;;;;7.80;5.35;;;9.00;99.90;;;;;;5044701;28;20021;-61
2021/03/01 08:25:54;;;;;;;12.93;6.88;;;8.90;99.90;;;;;;5044816;28;20024;-60
2021/03/01 08:28:22;;;;;;;10.05;6.43;;;8.90;99.90;;;;;;5044577;28;20029;-60
2021/03/01 08:30:53;;;;;;;15.48;9.85;;;8.70;99.90;;;;;;5044771;28;20092;-60
2021/03/01 08:33:22;;;;;;;14.95;9.02;;;8.50;99.90;;;;;;5044618;28;20021;-60
2021/03/01 08:36:00;;;;;;;11.63;6.97;;;8.90;99.90;;;;;;5041721;28;20462;-60
2021/03/01 08:38:47;;;;;;;12.10;7.97;;;8.90;99.90;;;;;;5044835;28;20032;-60
2021/03/01 08:41:16;;;;;;;9.88;5.80;;;9.10;99.90;;;;;;5047988;28;20039;-60
2021/03/01 08:43:45;;;;;;;9.63;4.82;;;9.30;99.90;;;;;;5048326;28;20031;-60
2021/03/01 08:46:14;;;;;;;5.38;3.97;;;9.50;99.90;;;;;;5047879;28;20503;-60
2021/03/01 08:48:51;;;;;;;7.40;4.45;;;9.60;99.90;;;;;;5048554;28;20033;-60
2021/03/01 08:51:18;;;;;;;6.72;4.45;;;9.60;99.90;;;;;;5047497;28;20045;-61
2021/03/01 08:53:44;;;;;;;6.90;4.50;;;9.70;99.90;;;;;;5046961;28;20449;-61
2021/03/01 08:56:24;;;;;;;5.72;3.85;;;9.80;99.90;;;;;;5047932;28;20090;-63
2021/03/01 08:58:50;;;;;;;6.05;4.30;;;9.80;99.90;;;;;;5047953;28;20494;-60
2021/03/01 09:01:17;;;;;;;7.13;4.15;;;9.90;99.90;;;;;;5047703;28;20064;-60
2021/03/01 09:03:45;;;;;;;5.85;3.55;;;10.00;99.90;;;;;;5048309;28;20025;-61
2021/03/01 09:06:13;;;;;;;4.97;3.38;;;10.00;99.90;;;;;;5047812;28;20044;-61
2021/03/01 09:08:48;;;;;;;5.25;3.13;;;10.20;99.90;;;;;;5048918;28;20032;-61
2021/03/01 09:11:23;;;;;;;5.00;3.20;;;10.20;99.90;;;;;;5047325;28;20541;-60
2021/03/01 09:13:53;;;;;;;4.15;2.72;;;10.20;99.90;;;;;;5046830;28;20033;-61
2021/03/01 09:16:24;;;;;;;4.07;2.85;;;10.30;99.90;;;;;;5047652;28;20179;-61
2021/03/01 09:19:00;;;;;;;3.20;2.40;;;10.40;99.90;;;;;;5047858;28;20105;-60
2021/03/01 09:21:27;;;;;;;3.67;2.67;;;10.40;99.90;;;;;;5047687;28;20055;-60
2021/03/01 09:23:57;;;;;;;3.97;2.90;;;10.40;99.90;;;;;;5047794;28;20028;-60
2021/03/01 09:26:26;;;;;;;6.60;4.00;;;10.50;99.90;;;;;;5047565;28;20037;-60
2021/03/01 09:28:54;;;;;;;4.70;3.30;;;10.60;99.90;;;;;;5047959;28;20029;-60
2021/03/01 09:31:20;;;;;;;4.05;2.78;;;10.60;99.90;;;;;;5047443;28;20056;-60
2021/03/01 09:33:46;;;;;;;5.15;3.53;;;10.70;99.90;;;;;;5048120;28;20024;-60
2021/03/01 09:36:13;;;;;;;5.38;3.47;;;10.70;99.90;;;;;;5047378;28;20033;-61
2021/03/01 09:38:42;;;;;;;5.22;3.60;;;10.80;99.90;;;;;;5047849;28;20086;-60
2021/03/01 09:41:11;;;;;;;6.03;3.90;;;10.70;99.90;;;;;;5047851;28;20100;-60
2021/03/01 09:43:39;;;;;;;4.07;3.05;;;10.80;99.90;;;;;;5047998;28;20406;-60
2021/03/01 09:46:06;;;;;;;6.13;3.70;;;10.80;99.90;;;;;;5048033;28;20025;-60
2021/03/01 09:48:45;;;;;;;4.82;3.10;;;11.00;99.90;;;;;;5047329;28;20021;-60
2021/03/01 09:51:11;;;;;;;3.55;2.35;;;11.00;99.90;;;;;;5046330;28;20018;-61
2021/03/01 09:53:38;;;;;;;3.92;2.97;;;11.20;99.90;;;;;;5046464;28;20032;-60
2021/03/01 09:56:04;;;;;;;3.95;2.78;;;11.30;99.90;;;;;;5047631;28;20025;-60
2021/03/01 09:58:31;;;;;;;3.95;2.92;;;11.40;99.90;;;;;;5046899;28;20025;-60
2021/03/01 10:01:13;;;;;;;5.28;2.92;;;11.50;99.90;;;;;;5047015;28;20048;-61
2021/03/01 10:03:50;;;;;;;3.40;2.67;;;11.60;99.90;;;;;;5047275;28;20017;-61
2021/03/01 10:06:17;;;;;;;3.63;2.72;;;11.60;99.90;;;;;;5046780;28;20025;-61
2021/03/01 10:08:43;;;;;;;4.13;2.60;;;11.70;99.90;;;;;;5047101;28;20033;-61
2021/03/01 10:11:23;;;;;;;4.22;2.78;;;11.80;99.90;;;;;;5046587;28;20625;-61
2021/03/01 10:13:51;;;;;;;3.75;2.85;;;11.90;99.90;;;;;;5046899;28;20402;-60
2021/03/01 10:16:37;;;;;;;5.53;3.28;;;11.70;99.90;;;;;;5046385;28;20494;-61
2021/03/01 10:19:17;;;;;;;4.53;2.67;;;12.00;99.90;;;;;;5046820;28;20017;-60
2021/03/01 10:21:46;;;;;;;4.22;2.72;;;12.00;99.90;;;;;;5046473;28;20060;-61
2021/03/01 10:24:13;;;;;;;3.30;2.60;;;12.30;99.90;;;;;;5046373;28;20109;-61
2021/03/01 10:26:53;;;;;;;4.55;2.78;;;12.40;99.90;;;;;;5046997;28;20036;-60
2021/03/01 10:29:30;;;;;;;3.78;2.55;;;12.30;99.90;;;;;;5046409;28;20025;-60
2021/03/01 10:31:57;;;;;;;3.63;2.60;;;12.20;99.90;;;;;;5045000;28;20033;-60
2021/03/01 10:34:29;;;;;;;5.38;2.90;;;12.20;99.90;;;;;;5046394;28;20080;-60
2021/03/01 10:36:57;;;;;;;3.33;2.40;;;12.60;99.90;;;;;;5046190;28;20062;-61
2021/03/01 10:39:39;;;;;;;4.47;2.80;;;12.70;99.90;;;;;;5046545;28;20409;-60
2021/03/01 10:42:18;;;;;;;3.83;2.90;;;12.80;99.90;;;;;;5046972;28;20029;-60
2021/03/01 10:44:53;;;;;;;3.97;2.95;;;12.60;99.90;;;;;;5046459;28;20025;-61
2021/03/01 10:47:21;;;;;;;4.97;3.13;;;13.00;99.90;;;;;;5045895;28;20395;-61
2021/03/01 10:49:53;;;;;;;5.03;3.03;;;13.30;99.90;;;;;;5046398;28;20029;-61
2021/03/01 10:52:20;;;;;;;4.18;3.30;;;13.30;99.90;;;;;;5045492;28;20033;-60
2021/03/01 10:54:46;;;;;;;6.20;3.83;;;13.30;99.90;;;;;;5046278;28;20028;-61
2021/03/01 10:57:12;;;;;;;7.03;3.97;;;13.00;99.90;;;;;;5045345;28;20029;-61
2021/03/01 10:59:38;;;;;;;6.22;3.50;;;13.20;99.90;;;;;;5046526;28;20017;-60
2021/03/01 11:02:04;;;;;;;4.60;2.90;;;13.30;99.90;;;;;;5045648;28;20033;-60
2021/03/01 11:04:30;;;;;;;4.65;3.03;;;13.30;99.90;;;;;;5045507;28;20128;-61
2021/03/01 11:06:57;;;;;;;6.78;3.78;;;13.40;99.90;;;;;;5045942;28;20108;-61
2021/03/01 11:09:23;;;;;;;5.15;3.00;;;13.60;99.90;;;;;;5045649;28;20021;-61
2021/03/01 11:11:50;;;;;;;5.40;3.65;;;13.80;99.90;;;;;;5045460;28;20048;-61
2021/03/01 11:14:18;;;;;;;3.78;3.10;;;13.70;99.90;;;;;;5045461;28;20029;-61
2021/03/01 11:16:43;;;;;;;4.97;3.08;;;13.80;99.90;;;;;;5045740;28;20036;-61
2021/03/01 11:19:12;;;;;;;3.58;2.72;;;13.80;99.90;;;;;;5045805;28;20467;-61
2021/03/01 11:21:40;;;;;;;4.70;2.63;;;14.10;99.90;;;;;;5046186;28;20021;-61
2021/03/01 11:24:06;;;;;;;5.47;3.78;;;14.30;99.90;;;;;;5046274;28;20021;-61
2021/03/01 11:26:32;;;;;;;5.95;3.20;;;14.10;99.00;;;;;;5044789;28;20020;-61
2021/03/01 11:28:58;;;;;;;3.60;2.42;;;14.30;99.90;;;;;;5045417;28;20091;-61
2021/03/01 11:31:24;;;;;;;3.70;2.92;;;14.60;99.70;;;;;;5045454;28;20033;-60
2021/03/01 11:33:51;;;;;;;3.95;3.00;;;14.30;98.90;;;;;;5045423;28;20028;-61
2021/03/01 11:36:18;;;;;;;7.05;3.80;;;14.40;99.10;;;;;;5045151;28;20431;-61
2021/03/01 11:38:44;;;;;;;4.45;3.13;;;14.30;98.90;;;;;;5045433;28;20098;-61
2021/03/01 11:41:14;;;;;;;5.07;3.10;;;14.50;98.90;;;;;;5044648;28;20137;-61
2021/03/01 11:43:44;;;;;;;4.80;2.95;;;14.80;99.10;;;;;;5045238;28;20025;-61
2021/03/01 11:46:10;;;;;;;3.75;2.85;;;14.80;98.70;;;;;;5044981;28;20021;-61
2021/03/01 11:48:36;;;;;;;5.18;3.17;;;15.10;98.20;;;;;;5045774;28;20017;-61
2021/03/01 11:51:02;;;;;;;3.67;2.67;;;15.00;97.80;;;;;;5045174;28;20029;-61
2021/03/01 11:53:27;;;;;;;2.55;2.13;;;15.40;98.60;;;;;;5044088;28;20025;-61
2021/03/01 11:55:54;;;;;;;3.67;2.30;;;15.40;98.00;;;;;;5044733;28;20455;-61
2021/03/01 11:58:20;;;;;;;3.55;2.47;;;15.40;97.70;;;;;;5044822;28;20112;-61
2021/03/01 12:00:45;;;;;;;3.25;2.50;;;15.70;97.60;;;;;;5045040;28;20108;-60
2021/03/01 12:03:11;;;;;;;2.72;1.88;;;15.50;97.70;;;;;;5044794;28;20025;-61
2021/03/01 12:05:39;;;;;;;3.70;2.67;;;16.00;98.40;;;;;;5045430;28;20013;-60
2021/03/01 12:08:06;;;;;;;5.32;2.60;;;15.90;96.90;;;;;;5045590;28;20055;-60
2021/03/01 12:10:33;;;;;;;3.72;2.17;;;16.30;96.70;;;;;;5044534;28;20059;-60
2021/03/01 12:12:59;;;;;;;2.72;2.15;;;16.40;96.20;;;;;;5044426;28;20490;-60
2021/03/01 12:15:25;;;;;;;3.20;2.22;;;16.50;96.40;;;;;;5044505;28;20112;-60
2021/03/01 12:17:52;;;;;;;3.70;2.40;;;16.50;95.30;;;;;;5043826;28;20091;-61
2021/03/01 12:20:19;;;;;;;2.80;1.83;;;16.70;96.20;;;;;;5044433;28;20021;-61
2021/03/01 12:22:45;;;;;;;3.70;2.00;;;16.90;96.30;;;;;;5042766;28;20555;-61
2021/03/01 12:25:11;;;;;;;2.92;1.90;;;16.90;96.80;;;;;;5042950;28;20494;-60
2021/03/01 12:27:38;;;;;;;3.35;2.20;;;17.10;96.50;;;;;;5045206;28;20449;-60
2021/03/01 12:30:05;;;;;;;3.70;2.10;;;17.10;95.30;;;;;;5045241;28;20116;-59
2021/03/01 12:32:31;;;;;;;4.55;1.95;;;17.30;96.40;;;;;;5042482;28;20418;-59
2021/03/01 12:34:58;;;;;;;3.38;2.35;;;17.20;95.10;;;;;;5043518;28;20032;-59
2021/03/01 12:37:28;;;;;;;2.35;1.35;;;17.40;95.30;;;;;;5042829;28;20025;-60
2021/03/01 12:39:54;;;;;;;2.20;1.60;;;17.60;94.70;;;;;;5043234;28;20028;-60
2021/03/01 12:42:20;;;;;;;7.47;2.97;;;17.70;92.40;;;;;;5043186;28;20057;-60
2021/03/01 12:44:45;;;;;;;3.03;1.90;;;17.70;86.00;;;;;;5044119;28;20064;-60
2021/03/01 12:47:12;;;;;;;4.75;1.90;;;17.90;89.00;;;;;;5043290;28;20025;-60
2021/03/01 12:49:37;;;;;;;3.85;1.63;;;18.00;87.50;;;;;;5043252;28;20025;-60
2021/03/01 12:52:05;;;;;;;5.65;2.60;;;18.10;83.60;;;;;;5042210;28;20041;-60
2021/03/01 12:54:31;;;;;;;7.07;2.92;;;18.00;82.40;;;;;;5043212;28;20028;-59
2021/03/01 12:56:58;;;;;;;4.65;2.38;;;18.10;80.70;;;;;;5042427;28;20029;-58
2021/03/01 12:59:25;;;;;;;4.53;2.45;;;18.40;80.10;;;;;;5042592;28;20017;-59